createdAt,value
2019-04-26T00:02:32.742Z,61.46
2019-04-26T00:05:02.412Z,60.92
2019-04-26T00:07:31.940Z,61.46
2019-04-26T00:10:03.165Z,60.57
2019-04-26T00:12:35.351Z,61.14
2019-04-26T00:15:08.070Z,61.11
2019-04-26T00:17:48.458Z,61.11
2019-04-26T00:20:19.025Z,61.24
2019-04-26T00:22:48.718Z,61.06
2019-04-26T00:25:18.658Z,60.75
2019-04-26T00:27:48.285Z,61.72
2019-04-26T00:30:19.080Z,61.62
2019-04-26T00:32:48.641Z,61.51
2019-04-26T00:35:18.176Z,61.37
2019-04-26T00:37:47.663Z,62.10
2019-04-26T00:40:18.171Z,61.94
2019-04-26T00:42:47.855Z,62.18
2019-04-26T00:45:17.420Z,62.17
2019-04-26T00:47:47.769Z,62.47
2019-04-26T00:50:17.763Z,62.46
2019-04-26T00:52:47.797Z,62.80
2019-04-26T00:55:17.784Z,62.30
2019-04-26T00:57:47.878Z,62.39
2019-04-26T01:00:19.573Z,62.90
2019-04-26T01:02:50.729Z,62.69
2019-04-26T01:05:20.903Z,62.67
2019-04-26T01:07:52.301Z,62.71
2019-04-26T01:10:21.791Z,62.73
2019-04-26T01:12:51.258Z,62.94
2019-04-26T01:15:22.045Z,63.28
2019-04-26T01:17:51.933Z,63.03
2019-04-26T01:20:24.736Z,63.09
2019-04-26T01:22:58.607Z,63.19
2019-04-26T01:25:52.471Z,63.26
2019-04-26T01:28:38.349Z,63.65
2019-04-26T01:31:09.164Z,63.50
2019-04-26T01:33:39.601Z,63.58
2019-04-26T01:36:13.288Z,63.81
2019-04-26T01:38:40.815Z,63.77
2019-04-26T01:41:17.477Z,63.71
2019-04-26T01:43:55.047Z,63.46
2019-04-26T01:46:29.027Z,64.03
2019-04-26T01:49:04.751Z,63.18
2019-04-26T01:51:53.719Z,63.74
2019-04-26T01:54:28.194Z,63.77
2019-04-26T01:57:02.202Z,63.79
2019-04-26T01:59:31.974Z,63.67
2019-04-26T02:02:04.331Z,63.69
2019-04-26T02:04:35.766Z,63.75
2019-04-26T02:07:05.562Z,64.04
2019-04-26T02:09:35.203Z,63.81
2019-04-26T02:12:05.030Z,64.01
2019-04-26T02:14:34.652Z,63.97
2019-04-26T02:17:04.538Z,64.09
2019-04-26T02:19:34.664Z,63.45
2019-04-26T02:22:21.441Z,63.56
2019-04-26T02:24:52.646Z,63.69
2019-04-26T02:27:26.815Z,63.93
2019-04-26T02:29:57.375Z,63.66
2019-04-26T02:32:28.981Z,63.89
2019-04-26T02:34:58.991Z,64.53
2019-04-26T02:37:30.849Z,64.33
2019-04-26T02:40:00.450Z,64.53
2019-04-26T02:42:39.700Z,64.49
2019-04-26T02:45:26.928Z,64.28
2019-04-26T02:48:16.985Z,64.28
2019-04-26T02:50:58.747Z,64.76
2019-04-26T02:53:37.375Z,64.70
2019-04-26T02:56:25.408Z,64.70
2019-04-26T02:59:02.637Z,63.67
2019-04-26T03:01:34.492Z,64.22
2019-04-26T03:04:03.671Z,62.72
2019-04-26T03:06:34.916Z,62.61
2019-04-26T03:09:07.576Z,63.34
2019-04-26T03:11:43.174Z,62.15
2019-04-26T03:14:15.608Z,61.84
2019-04-26T03:17:03.041Z,61.66
2019-04-26T03:19:44.245Z,61.75
2019-04-26T03:22:27.346Z,61.41
2019-04-26T03:25:23.765Z,63.23
2019-04-26T03:28:44.230Z,62.44
2019-04-26T03:31:23.997Z,62.04
2019-04-26T03:34:14.543Z,62.33
2019-04-26T03:37:32.561Z,62.84
2019-04-26T03:40:40.430Z,63.09
2019-04-26T03:43:34.577Z,62.72
2019-04-26T03:46:20.653Z,63.37
2019-04-26T03:49:19.106Z,63.88
2019-04-26T03:52:20.341Z,63.80
2019-04-26T03:54:57.268Z,63.63
2019-04-26T03:58:08.206Z,64.19
2019-04-26T04:00:54.300Z,64.21
2019-04-26T04:03:49.492Z,64.24
2019-04-26T04:06:24.365Z,64.37
2019-04-26T04:09:01.255Z,64.62
2019-04-26T04:11:42.373Z,64.81
2019-04-26T04:14:34.387Z,64.67
2019-04-26T04:17:21.832Z,64.58
2019-04-26T04:20:21.297Z,64.56
2019-04-26T04:23:13.317Z,64.44
2019-04-26T04:25:52.182Z,64.58
2019-04-26T04:29:02.933Z,64.68
2019-04-26T04:31:47.616Z,64.64
2019-04-26T04:34:46.008Z,64.84
2019-04-26T04:37:18.222Z,64.64
2019-04-26T04:40:01.442Z,64.97
2019-04-26T04:42:45.901Z,65.12
2019-04-26T04:45:42.191Z,65.14
2019-04-26T04:48:29.758Z,65.19
2019-04-26T04:51:33.544Z,65.42
2019-04-26T04:54:25.533Z,65.71
2019-04-26T04:57:02.387Z,65.73
2019-04-26T05:00:00.305Z,65.33
2019-04-26T05:02:58.859Z,65.46
2019-04-26T05:08:48.854Z,65.71
2019-04-26T05:11:55.978Z,65.19
2019-04-26T05:14:47.991Z,65.28
2019-04-26T05:17:56.828Z,65.47
2019-04-26T05:20:48.729Z,65.57
2019-04-26T05:23:57.706Z,65.40
2019-04-26T05:26:57.188Z,65.42
2019-04-26T05:30:02.716Z,65.45
2019-04-26T05:32:55.085Z,65.66
2019-04-26T05:36:32.192Z,65.50
2019-04-26T05:39:08.370Z,65.54
2019-04-26T05:42:21.576Z,65.56
2019-04-26T05:45:08.967Z,65.38
2019-04-26T05:48:04.184Z,65.46
2019-04-26T05:51:04.598Z,65.79
2019-04-26T05:54:04.334Z,65.79
2019-04-26T05:57:10.331Z,65.65
2019-04-26T06:00:50.379Z,65.99
2019-04-26T06:04:08.387Z,66.28
2019-04-26T06:07:32.598Z,65.87
2019-04-26T06:10:15.757Z,66.24
2019-04-26T06:13:10.676Z,66.25
2019-04-26T06:16:38.685Z,66.50
2019-04-26T06:19:41.824Z,66.00
2019-04-26T06:22:56.241Z,65.92
2019-04-26T06:25:33.851Z,65.85
2019-04-26T06:28:22.281Z,65.69
2019-04-26T06:30:57.273Z,65.70
2019-04-26T06:33:49.286Z,65.43
2019-04-26T06:36:23.736Z,65.11
2019-04-26T06:39:18.596Z,64.91
2019-04-26T06:42:24.009Z,64.56
2019-04-26T06:45:24.231Z,64.07
2019-04-26T06:48:23.663Z,64.07
2019-04-26T06:51:23.547Z,63.96
2019-04-26T06:54:11.001Z,63.92
2019-04-26T06:57:09.623Z,63.79
2019-04-26T06:59:59.445Z,64.07
2019-04-26T07:03:09.619Z,63.95
2019-04-26T07:05:49.261Z,64.26
2019-04-26T07:08:40.880Z,64.40
2019-04-26T07:11:31.425Z,64.43
2019-04-26T07:14:30.631Z,64.69
2019-04-26T07:17:16.924Z,63.57
2019-04-26T07:20:13.004Z,63.43
2019-04-26T07:23:21.714Z,63.40
2019-04-26T07:26:39.231Z,63.57
2019-04-26T07:29:40.051Z,63.06
2019-04-26T07:32:42.541Z,63.02
2019-04-26T07:35:21.000Z,64.05
2019-04-26T07:38:28.220Z,63.83
2019-04-26T07:41:40.818Z,64.33
2019-04-26T07:44:33.992Z,64.21
2019-04-26T07:47:14.342Z,64.57
2019-04-26T07:50:33.068Z,61.99
2019-04-26T07:53:29.448Z,62.38
2019-04-26T07:56:15.133Z,62.62
2019-04-26T07:59:31.271Z,62.96
2019-04-26T08:02:34.762Z,63.39
2019-04-26T08:05:55.574Z,63.56
2019-04-26T08:08:29.563Z,62.45
2019-04-26T08:11:22.274Z,61.70
2019-04-26T08:14:08.541Z,59.71
2019-04-26T08:17:04.788Z,60.27
2019-04-26T08:19:57.491Z,60.87
2019-04-26T08:22:28.670Z,61.94
2019-04-26T08:25:00.087Z,62.45
2019-04-26T08:27:32.966Z,59.14
2019-04-26T08:30:10.259Z,59.11
2019-04-26T08:32:42.814Z,58.63
2019-04-26T08:35:20.619Z,58.87
2019-04-26T08:37:53.143Z,58.99
2019-04-26T08:40:30.671Z,59.12
2019-04-26T08:43:12.401Z,59.07
2019-04-26T08:46:01.742Z,58.66
2019-04-26T08:48:23.338Z,57.80
2019-04-26T08:50:55.280Z,57.46
2019-04-26T08:53:27.899Z,57.60
2019-04-26T08:55:59.866Z,57.59
2019-04-26T08:58:31.767Z,58.25
2019-04-26T09:01:22.659Z,57.23
2019-04-26T09:04:08.883Z,57.26
2019-04-26T09:06:42.804Z,56.82
2019-04-26T09:09:18.235Z,57.30
2019-04-26T09:11:59.092Z,57.30
2019-04-26T09:14:23.988Z,58.56
2019-04-26T09:16:54.041Z,58.24
2019-04-26T09:19:26.140Z,57.44
2019-04-26T09:22:12.397Z,58.39
2019-04-26T09:24:34.915Z,57.06
2019-04-26T09:27:08.771Z,58.37
2019-04-26T09:29:39.968Z,57.07
2019-04-26T09:32:13.573Z,55.95
2019-04-26T09:34:46.738Z,55.24
2019-04-26T09:37:16.465Z,54.27
2019-04-26T09:39:46.182Z,53.81
2019-04-26T09:42:23.307Z,53.95
2019-04-26T09:44:56.816Z,53.53
2019-04-26T09:47:39.479Z,53.72
2019-04-26T09:50:17.066Z,52.97
2019-04-26T09:52:48.469Z,52.99
2019-04-26T09:55:18.133Z,52.54
2019-04-26T09:57:47.631Z,53.85
2019-04-26T10:00:23.657Z,53.16
2019-04-26T10:02:53.201Z,53.13
2019-04-26T10:05:23.884Z,52.62
2019-04-26T10:07:53.474Z,52.95
2019-04-26T10:10:24.793Z,53.69
2019-04-26T10:12:59.741Z,54.25
2019-04-26T10:15:46.808Z,53.82
2019-04-26T10:18:20.423Z,53.65
2019-04-26T10:20:49.344Z,53.89
2019-04-26T10:23:18.880Z,53.89
2019-04-26T10:25:52.071Z,54.06
2019-04-26T10:28:19.977Z,53.61
2019-04-26T10:30:49.797Z,53.26
2019-04-26T10:33:19.349Z,52.94
2019-04-26T10:35:52.486Z,53.15
2019-04-26T10:38:23.919Z,53.53
2019-04-26T10:40:51.434Z,53.72
2019-04-26T10:43:20.902Z,53.65
2019-04-26T10:45:53.962Z,54.14
2019-04-26T10:48:23.304Z,53.41
2019-04-26T10:50:52.958Z,52.25
2019-04-26T10:53:25.638Z,51.80
2019-04-26T10:56:05.719Z,52.04
2019-04-26T10:58:39.730Z,51.33
2019-04-26T11:01:16.234Z,51.75
2019-04-26T11:03:45.787Z,52.32
2019-04-26T11:06:15.500Z,51.47
2019-04-26T11:08:45.236Z,51.47
2019-04-26T11:11:14.799Z,50.93
2019-04-26T11:13:44.369Z,48.65
2019-04-26T11:16:13.909Z,48.89
2019-04-26T11:18:43.502Z,49.68
2019-04-26T11:21:16.365Z,48.77
2019-04-26T11:23:45.522Z,48.93
2019-04-26T11:26:16.678Z,47.66
2019-04-26T11:28:46.230Z,47.53
2019-04-26T11:31:15.882Z,47.34
2019-04-26T11:33:49.589Z,47.64
2019-04-26T11:36:17.019Z,47.53
2019-04-26T11:38:46.495Z,47.42
2019-04-26T11:41:16.067Z,48.05
2019-04-26T11:43:45.519Z,46.87
2019-04-26T11:46:14.997Z,46.13
2019-04-26T11:48:44.501Z,47.38
2019-04-26T11:51:14.061Z,47.63
2019-04-26T11:53:44.760Z,47.21
2019-04-26T11:56:14.520Z,46.89
2019-04-26T11:58:44.080Z,46.42
2019-04-26T12:01:15.408Z,46.74
2019-04-26T12:03:46.522Z,45.79
2019-04-26T12:06:17.730Z,45.98
2019-04-26T12:08:51.811Z,44.59
2019-04-26T12:11:31.489Z,45.61
2019-04-26T12:13:55.414Z,44.65
2019-04-26T12:16:23.898Z,44.52
2019-04-26T12:18:53.372Z,44.98
2019-04-26T12:21:22.878Z,45.32
2019-04-26T12:23:55.471Z,43.41
2019-04-26T12:26:23.558Z,42.90
2019-04-26T12:28:53.077Z,42.54
2019-04-26T12:31:22.576Z,42.16
2019-04-26T12:33:52.120Z,42.01
2019-04-26T12:36:21.620Z,43.07
2019-04-26T12:38:51.155Z,41.66
2019-04-26T12:41:25.382Z,42.55
2019-04-26T12:43:54.573Z,43.23
2019-04-26T12:46:29.665Z,41.03
2019-04-26T12:48:59.150Z,41.39
2019-04-26T12:51:28.777Z,41.21
2019-04-26T12:53:58.282Z,41.39
2019-04-26T12:56:31.282Z,41.37
2019-04-26T12:58:59.036Z,41.54
2019-04-26T13:01:28.586Z,40.93
2019-04-26T13:06:42.181Z,41.09
2019-04-26T13:09:17.585Z,40.93
2019-04-26T13:11:49.248Z,42.14
2019-04-26T13:14:23.113Z,40.77
2019-04-26T13:16:57.146Z,38.97
2019-04-26T13:19:26.811Z,39.62
2019-04-26T13:21:56.292Z,39.80
2019-04-26T13:24:25.858Z,39.00
2019-04-26T13:26:55.318Z,39.12
2019-04-26T13:29:27.269Z,38.93
2019-04-26T13:31:56.223Z,38.46
2019-04-26T13:34:25.726Z,39.02
2019-04-26T13:36:55.367Z,38.62
2019-04-26T13:39:25.121Z,38.42
2019-04-26T13:42:02.977Z,38.01
2019-04-26T13:44:44.187Z,37.79
2019-04-26T13:47:15.999Z,37.78
2019-04-26T13:49:48.187Z,38.98
2019-04-26T13:52:17.908Z,38.28
2019-04-26T13:54:47.494Z,36.97
2019-04-26T13:57:16.964Z,37.71
2019-04-26T13:59:46.447Z,38.05
2019-04-26T14:02:16.670Z,38.01
2019-04-26T14:04:46.313Z,39.22
2019-04-26T14:07:15.842Z,37.29
2019-04-26T14:09:45.364Z,36.42
2019-04-26T14:12:18.764Z,36.76
2019-04-26T14:14:46.242Z,37.82
2019-04-26T14:17:15.726Z,37.13
2019-04-26T14:19:49.179Z,36.63
2019-04-26T14:22:18.214Z,37.47
2019-04-26T14:25:07.553Z,38.57
2019-04-26T14:27:38.746Z,37.82
2019-04-26T14:30:09.053Z,36.61
2019-04-26T14:32:38.688Z,37.66
2019-04-26T14:35:11.382Z,36.50
2019-04-26T14:37:39.539Z,36.80
2019-04-26T14:40:17.298Z,36.84
2019-04-26T14:42:45.848Z,34.92
2019-04-26T14:45:22.813Z,35.18
2019-04-26T14:47:47.635Z,35.92
2019-04-26T14:50:14.756Z,34.71
2019-04-26T14:52:44.315Z,35.07
2019-04-26T14:55:16.528Z,35.76
2019-04-26T14:57:46.723Z,34.99
2019-04-26T15:00:20.913Z,35.33
2019-04-26T15:02:56.354Z,36.16
2019-04-26T15:05:41.892Z,35.51
2019-04-26T15:08:09.560Z,35.92
2019-04-26T15:10:45.812Z,37.47
2019-04-26T15:13:20.088Z,36.23
2019-04-26T15:15:45.868Z,35.10
2019-04-26T15:18:13.996Z,35.19
2019-04-26T15:20:43.492Z,34.97
2019-04-26T15:23:13.304Z,35.66
2019-04-26T15:25:48.240Z,35.41
2019-04-26T15:28:14.645Z,36.66
2019-04-26T15:30:46.754Z,36.57
2019-04-26T15:33:15.490Z,35.57
2019-04-26T15:35:45.873Z,35.33
2019-04-26T15:38:15.404Z,35.95
2019-04-26T15:40:46.620Z,34.96
2019-04-26T15:43:23.810Z,35.42
2019-04-26T15:45:56.160Z,36.03
2019-04-26T15:48:43.460Z,36.03
2019-04-26T15:51:14.641Z,35.93
2019-04-26T15:53:48.837Z,35.98
2019-04-26T15:56:17.850Z,37.78
2019-04-26T15:58:49.034Z,36.10
2019-04-26T16:01:18.717Z,37.97
2019-04-26T16:03:48.262Z,35.78
2019-04-26T16:06:17.838Z,37.46
2019-04-26T16:08:47.475Z,35.92
2019-04-26T16:11:17.025Z,36.13
2019-04-26T16:14:06.030Z,36.59
2019-04-26T16:16:35.626Z,37.45
2019-04-26T16:19:05.638Z,37.61
2019-04-26T16:21:35.110Z,38.07
2019-04-26T16:24:04.918Z,38.90
2019-04-26T16:26:34.406Z,37.61
2019-04-26T16:29:03.828Z,37.69
2019-04-26T16:31:46.064Z,38.02
2019-04-26T16:34:23.412Z,36.97
2019-04-26T16:36:52.948Z,37.38
2019-04-26T16:39:23.801Z,39.05
2019-04-26T16:41:53.720Z,38.51
2019-04-26T16:44:28.066Z,41.10
2019-04-26T16:47:01.430Z,40.90
2019-04-26T16:49:25.883Z,41.77
2019-04-26T16:52:02.021Z,42.18
2019-04-26T16:54:26.893Z,40.67
2019-04-26T16:56:59.003Z,41.10
2019-04-26T16:59:27.606Z,43.47
2019-04-26T17:02:01.436Z,43.92
2019-04-26T17:04:32.102Z,42.35
2019-04-26T17:07:02.957Z,43.48
2019-04-26T17:09:52.266Z,43.54
2019-04-26T17:12:02.526Z,43.72
2019-04-26T17:14:34.174Z,41.90
2019-04-26T17:17:03.353Z,42.24
2019-04-26T17:19:37.436Z,42.82
2019-04-26T17:22:15.979Z,41.77
2019-04-26T17:24:48.965Z,43.50
2019-04-26T17:27:20.169Z,44.31
2019-04-26T17:29:49.822Z,43.97
2019-04-26T17:32:19.533Z,44.43
2019-04-26T17:34:49.115Z,45.03
2019-04-26T17:37:21.968Z,47.26
2019-04-26T17:39:53.764Z,48.18
2019-04-26T17:42:24.905Z,47.56
2019-04-26T17:44:52.392Z,46.07
2019-04-26T17:47:21.896Z,46.09
2019-04-26T17:49:52.460Z,47.33
2019-04-26T17:52:22.084Z,48.13
2019-04-26T17:54:52.150Z,47.74
2019-04-26T17:57:33.470Z,46.77
2019-04-26T18:00:06.485Z,48.45
2019-04-26T18:02:40.249Z,47.88
2019-04-26T18:05:00.887Z,49.20
2019-04-26T18:07:40.539Z,48.48
2019-04-26T18:10:02.361Z,48.45
2019-04-26T18:12:32.598Z,48.45
2019-04-26T18:15:05.671Z,47.37
2019-04-26T18:17:40.116Z,47.27
2019-04-26T18:20:08.879Z,47.93
2019-04-26T18:22:38.195Z,47.33
2019-04-26T18:25:11.231Z,48.18
2019-04-26T18:27:39.863Z,47.80
2019-04-26T18:30:12.231Z,49.07
2019-04-26T18:32:45.717Z,49.47
2019-04-26T18:35:15.681Z,48.97
2019-04-26T18:37:43.849Z,49.17
2019-04-26T18:40:13.760Z,49.63
2019-04-26T18:42:43.415Z,50.52
2019-04-26T18:45:13.912Z,50.25
2019-04-26T18:47:45.381Z,51.20
2019-04-26T18:50:15.124Z,51.10
2019-04-26T18:53:03.264Z,50.83
2019-04-26T18:55:34.551Z,51.00
2019-04-26T18:58:05.588Z,51.16
2019-04-26T19:00:37.303Z,52.48
2019-04-26T19:03:07.079Z,52.06
2019-04-26T19:05:36.762Z,52.88
2019-04-26T19:08:07.600Z,52.85
2019-04-26T19:10:37.740Z,52.99
2019-04-26T19:13:22.191Z,53.35
2019-04-26T19:16:03.048Z,53.71
2019-04-26T19:18:42.350Z,53.43
2019-04-26T19:21:14.567Z,53.99
2019-04-26T19:23:44.155Z,54.68
2019-04-26T19:26:15.049Z,54.71
2019-04-26T19:28:44.784Z,55.27
2019-04-26T19:31:14.322Z,55.11
2019-04-26T19:33:47.686Z,55.82
2019-04-26T19:36:17.670Z,55.43
2019-04-26T19:38:49.814Z,56.03
2019-04-26T19:41:21.569Z,56.74
2019-04-26T19:43:48.967Z,56.70
2019-04-26T19:46:25.194Z,56.68
2019-04-26T19:49:01.236Z,56.86
2019-04-26T19:51:44.170Z,56.64
2019-04-26T19:54:18.027Z,56.56
2019-04-26T19:57:03.756Z,57.56
2019-04-26T19:59:34.616Z,57.84
2019-04-26T20:02:04.966Z,58.23
2019-04-26T20:04:34.456Z,58.20
2019-04-26T20:07:04.807Z,58.35
2019-04-26T20:09:35.261Z,58.38
2019-04-26T20:12:05.131Z,58.75
2019-04-26T20:14:44.620Z,58.80
2019-04-26T20:17:05.989Z,58.94
2019-04-26T20:19:37.566Z,59.00
2019-04-26T20:22:07.628Z,59.53
2019-04-26T20:24:37.253Z,59.02
2019-04-26T20:27:06.813Z,59.46
2019-04-26T20:29:36.433Z,59.48
2019-04-26T20:32:05.797Z,59.18
2019-04-26T20:34:35.342Z,60.02
2019-04-26T20:37:05.040Z,60.30
2019-04-26T20:39:34.658Z,60.52
2019-04-26T20:42:04.315Z,60.53
2019-04-26T20:44:48.064Z,60.73
2019-04-26T20:47:07.650Z,60.61
2019-04-26T20:49:47.488Z,60.50
2019-04-26T20:52:07.833Z,60.82
2019-04-26T20:54:37.404Z,60.82
2019-04-26T20:57:07.042Z,61.09
2019-04-26T20:59:36.515Z,61.10
2019-04-26T21:02:08.069Z,61.27
2019-04-26T21:04:38.569Z,61.40
2019-04-26T21:07:11.427Z,61.36
2019-04-26T21:09:40.905Z,61.76
2019-04-26T21:12:15.888Z,61.63
2019-04-26T21:14:44.522Z,62.18
2019-04-26T21:17:14.044Z,61.98
2019-04-26T21:19:43.903Z,61.97
2019-04-26T21:22:13.438Z,62.19
2019-04-26T21:27:25.949Z,62.05
2019-04-26T21:30:13.656Z,62.37
2019-04-26T21:32:59.202Z,61.90
2019-04-26T21:35:29.440Z,62.38
2019-04-26T21:38:00.658Z,62.10
2019-04-26T21:40:33.503Z,62.34
2019-04-26T21:43:03.308Z,62.36
2019-04-26T21:45:34.481Z,62.65
2019-04-26T21:48:06.693Z,62.58
2019-04-26T21:50:38.630Z,62.67
2019-04-26T21:53:07.021Z,62.80
2019-04-26T21:55:38.724Z,62.81
2019-04-26T21:58:08.036Z,63.42
2019-04-26T22:00:43.613Z,63.48
2019-04-26T22:03:16.024Z,63.25
2019-04-26T22:05:49.876Z,63.19
2019-04-26T22:08:24.399Z,63.28
2019-04-26T22:10:48.952Z,63.52
2019-04-26T22:13:41.538Z,63.50
2019-04-26T22:16:29.402Z,63.23
2019-04-26T22:18:45.160Z,62.40
2019-04-26T22:21:21.649Z,62.49
2019-04-26T22:24:07.247Z,62.80
2019-04-26T22:26:37.953Z,62.95
2019-04-26T22:29:11.992Z,63.13
2019-04-26T22:31:41.390Z,63.33
2019-04-26T22:34:10.631Z,63.22
2019-04-26T22:36:40.173Z,63.38
2019-04-26T22:39:18.596Z,63.39
2019-04-26T22:41:48.236Z,63.75
2019-04-26T22:44:19.515Z,63.56
2019-04-26T22:46:54.685Z,63.37
2019-04-26T22:49:24.258Z,63.63
2019-04-26T22:51:53.797Z,63.40
2019-04-26T22:54:24.830Z,62.86
2019-04-26T22:56:54.498Z,62.69
2019-04-26T22:59:24.002Z,63.22
2019-04-26T23:01:53.817Z,63.30
2019-04-26T23:04:26.349Z,63.09
2019-04-26T23:06:56.484Z,62.65
2019-04-26T23:09:26.206Z,63.11
2019-04-26T23:12:03.795Z,62.62
2019-04-26T23:14:37.798Z,62.95
2019-04-26T23:17:23.130Z,62.08
2019-04-26T23:19:57.539Z,62.43
2019-04-26T23:22:31.050Z,63.20
2019-04-26T23:24:59.236Z,62.30
2019-04-26T23:27:28.715Z,62.18
2019-04-26T23:29:58.507Z,62.32
2019-04-26T23:32:28.135Z,62.55
2019-04-26T23:34:58.118Z,61.76
2019-04-26T23:37:29.776Z,61.71
2019-04-26T23:39:59.298Z,61.92
2019-04-26T23:42:28.756Z,61.43
2019-04-26T23:44:58.254Z,60.98
2019-04-26T23:47:27.714Z,61.78
2019-04-26T23:49:57.290Z,61.84
2019-04-26T23:52:26.840Z,61.18
2019-04-26T23:54:56.341Z,60.94
2019-04-26T23:57:27.397Z,60.96
